createdAt,value
2017-11-07T00:01:15.157Z,14.20
2017-11-07T00:03:41.877Z,11.80
2017-11-07T00:06:08.635Z,12.93
2017-11-07T00:08:35.426Z,14.27
2017-11-07T00:11:02.176Z,13.30
2017-11-07T00:13:28.910Z,14.87
2017-11-07T00:15:55.632Z,14.17
2017-11-07T00:18:22.447Z,15.13
2017-11-07T00:20:49.196Z,15.80
2017-11-07T00:23:15.913Z,16.10
2017-11-07T00:25:42.746Z,17.07
2017-11-07T00:28:09.477Z,15.20
2017-11-07T00:30:36.209Z,15.80
2017-11-07T00:33:03.029Z,15.30
2017-11-07T00:35:29.792Z,16.47
2017-11-07T00:37:56.535Z,15.07
2017-11-07T00:40:23.264Z,14.77
2017-11-07T00:42:50.015Z,14.50
2017-11-07T00:45:16.749Z,13.63
2017-11-07T00:47:43.495Z,15.10
2017-11-07T00:50:10.234Z,15.87
2017-11-07T00:52:36.973Z,16.30
2017-11-07T00:55:03.701Z,15.40
2017-11-07T00:57:30.437Z,14.83
2017-11-07T00:59:57.155Z,13.63
2017-11-07T01:02:23.944Z,13.87
2017-11-07T01:04:50.734Z,14.80
2017-11-07T01:07:17.498Z,14.77
2017-11-07T01:09:44.216Z,14.60
2017-11-07T01:12:11.018Z,16.20
2017-11-07T01:14:37.759Z,14.70
2017-11-07T01:17:04.510Z,15.33
2017-11-07T01:19:31.236Z,14.60
2017-11-07T01:21:57.973Z,14.63
2017-11-07T01:24:24.696Z,13.60
2017-11-07T01:26:51.420Z,13.07
2017-11-07T01:29:18.139Z,12.20
2017-11-07T01:31:44.878Z,12.77
2017-11-07T01:34:11.631Z,13.27
2017-11-07T01:36:38.440Z,12.80
2017-11-07T01:39:05.163Z,11.77
2017-11-07T01:41:31.927Z,12.57
2017-11-07T01:43:58.650Z,12.80
2017-11-07T01:46:25.484Z,11.07
2017-11-07T01:48:52.216Z,11.70
2017-11-07T01:51:18.965Z,13.47
2017-11-07T01:53:45.773Z,15.03
2017-11-07T01:56:12.505Z,12.03
2017-11-07T01:58:39.273Z,13.67
2017-11-07T02:01:06.015Z,14.27
2017-11-07T02:03:32.815Z,15.27
2017-11-07T02:05:59.548Z,14.53
2017-11-07T02:08:26.313Z,16.27
2017-11-07T02:10:53.036Z,12.77
2017-11-07T02:13:19.767Z,12.97
2017-11-07T02:15:46.505Z,13.60
2017-11-07T02:18:13.270Z,15.13
2017-11-07T02:20:40.055Z,13.40
2017-11-07T02:23:06.806Z,14.47
2017-11-07T02:25:33.555Z,15.20
2017-11-07T02:28:00.388Z,14.57
2017-11-07T02:30:27.157Z,14.50
2017-11-07T02:32:53.925Z,14.37
2017-11-07T02:35:20.685Z,15.27
2017-11-07T02:37:47.454Z,15.87
2017-11-07T02:40:14.205Z,15.40
2017-11-07T02:42:40.935Z,15.43
2017-11-07T02:45:07.671Z,15.37
2017-11-07T02:47:34.494Z,15.10
2017-11-07T02:50:01.224Z,16.30
2017-11-07T02:52:27.952Z,16.27
2017-11-07T02:54:54.706Z,15.63
2017-11-07T02:57:21.441Z,14.60
2017-11-07T02:59:48.220Z,15.37
2017-11-07T03:02:14.944Z,17.50
2017-11-07T03:04:41.686Z,14.83
2017-11-07T03:07:08.444Z,13.77
2017-11-07T03:09:35.166Z,15.30
2017-11-07T03:12:01.906Z,15.57
2017-11-07T03:14:28.637Z,14.20
2017-11-07T03:16:55.371Z,15.20
2017-11-07T03:19:22.113Z,15.40
2017-11-07T03:21:48.944Z,14.40
2017-11-07T03:24:15.666Z,13.90
2017-11-07T03:26:42.383Z,15.17
2017-11-07T03:29:09.235Z,15.53
2017-11-07T03:31:35.970Z,13.73
2017-11-07T03:34:02.692Z,14.30
2017-11-07T03:36:29.437Z,15.63
2017-11-07T03:38:56.182Z,13.80
2017-11-07T03:41:22.904Z,13.53
2017-11-07T03:43:49.695Z,14.57
2017-11-07T03:46:16.436Z,11.97
2017-11-07T03:48:43.181Z,13.60
2017-11-07T03:51:09.992Z,14.83
2017-11-07T03:53:36.741Z,13.40
2017-11-07T03:56:03.492Z,14.47
2017-11-07T03:58:30.316Z,14.33
2017-11-07T04:00:57.050Z,15.20
2017-11-07T04:03:23.796Z,14.77
2017-11-07T04:05:50.623Z,14.50
2017-11-07T04:08:17.378Z,14.87
2017-11-07T04:10:44.106Z,14.20
2017-11-07T04:13:10.854Z,14.07
2017-11-07T04:15:37.573Z,14.13
2017-11-07T04:18:04.301Z,14.13
2017-11-07T04:20:31.133Z,13.80
2017-11-07T04:22:57.932Z,14.00
2017-11-07T04:25:24.691Z,13.53
2017-11-07T04:27:51.431Z,13.93
2017-11-07T04:30:18.196Z,13.33
2017-11-07T04:32:44.934Z,14.30
2017-11-07T04:35:11.675Z,14.00
2017-11-07T04:37:38.493Z,14.03
2017-11-07T04:40:05.306Z,14.10
2017-11-07T04:42:32.060Z,13.47
2017-11-07T04:44:58.866Z,13.67
2017-11-07T04:47:25.598Z,12.93
2017-11-07T04:49:52.326Z,13.00
2017-11-07T04:52:19.055Z,11.83
2017-11-07T04:54:45.777Z,12.83
2017-11-07T04:57:12.593Z,12.87
2017-11-07T04:59:39.315Z,14.07
2017-11-07T05:02:06.048Z,13.67
2017-11-07T05:04:32.791Z,13.50
2017-11-07T05:06:59.529Z,12.23
2017-11-07T05:09:26.275Z,14.30
2017-11-07T05:11:53.018Z,13.47
2017-11-07T05:14:19.825Z,14.93
2017-11-07T05:16:46.547Z,14.97
2017-11-07T05:19:13.343Z,15.13
2017-11-07T05:21:40.083Z,12.90
2017-11-07T05:24:06.905Z,13.53
2017-11-07T05:26:33.638Z,12.93
2017-11-07T05:29:00.374Z,13.80
2017-11-07T05:31:27.095Z,14.20
2017-11-07T05:33:53.834Z,14.20
2017-11-07T05:36:20.578Z,14.10
2017-11-07T05:38:47.300Z,13.53
2017-11-07T05:41:14.065Z,13.70
2017-11-07T05:43:40.780Z,13.00
2017-11-07T05:46:07.573Z,14.00
2017-11-07T05:48:34.354Z,12.37
2017-11-07T05:51:01.130Z,15.07
2017-11-07T05:53:27.939Z,13.60
2017-11-07T05:55:54.728Z,12.70
2017-11-07T05:58:21.472Z,14.13
2017-11-07T06:00:48.233Z,14.50
2017-11-07T06:03:14.966Z,14.43
2017-11-07T06:05:41.683Z,14.20
2017-11-07T06:08:08.418Z,16.63
2017-11-07T06:10:35.132Z,14.93
2017-11-07T06:13:01.885Z,14.90
2017-11-07T06:15:28.638Z,15.83
2017-11-07T06:17:55.369Z,14.87
2017-11-07T06:20:22.175Z,14.77
2017-11-07T06:22:48.925Z,14.47
2017-11-07T06:25:15.668Z,13.10
2017-11-07T06:27:42.407Z,14.27
2017-11-07T06:30:09.147Z,16.03
2017-11-07T06:32:35.875Z,15.03
2017-11-07T06:35:02.634Z,16.17
2017-11-07T06:37:29.370Z,14.77
2017-11-07T06:39:56.139Z,15.40
2017-11-07T06:42:22.863Z,15.40
2017-11-07T06:44:49.615Z,15.80
2017-11-07T06:47:16.356Z,13.27
2017-11-07T06:49:43.091Z,13.33
2017-11-07T06:52:09.881Z,15.13
2017-11-07T06:54:36.606Z,13.50
2017-11-07T06:57:03.327Z,13.93
2017-11-07T06:59:30.054Z,12.20
2017-11-07T07:01:56.802Z,12.97
2017-11-07T07:04:23.526Z,14.37
2017-11-07T07:06:50.235Z,13.30
2017-11-07T07:09:16.968Z,13.27
2017-11-07T07:11:43.702Z,13.60
2017-11-07T07:14:10.411Z,13.10
2017-11-07T07:16:37.144Z,13.90
2017-11-07T07:19:03.870Z,12.83
2017-11-07T07:21:30.581Z,13.10
2017-11-07T07:23:57.293Z,14.37
2017-11-07T07:26:24.011Z,14.50
2017-11-07T07:28:50.763Z,14.70
2017-11-07T07:31:17.508Z,14.80
2017-11-07T07:33:44.234Z,16.10
2017-11-07T07:36:10.952Z,16.23
2017-11-07T07:38:37.671Z,15.10
2017-11-07T07:41:04.419Z,16.77
2017-11-07T07:43:31.141Z,17.10
2017-11-07T07:45:57.890Z,15.33
2017-11-07T07:50:57.906Z,16.13
2017-11-07T07:53:24.614Z,17.60
2017-11-07T07:55:51.347Z,16.63
2017-11-07T07:58:18.079Z,17.37
2017-11-07T08:00:44.803Z,17.83
2017-11-07T08:03:11.567Z,17.27
2017-11-07T08:05:38.360Z,16.57
2017-11-07T08:08:05.114Z,16.83
2017-11-07T08:10:31.854Z,16.97
2017-11-07T08:12:58.580Z,18.00
2017-11-07T08:15:25.358Z,17.13
2017-11-07T08:17:52.125Z,17.40
2017-11-07T08:20:18.879Z,18.90
2017-11-07T08:22:45.626Z,19.00
2017-11-07T08:25:12.381Z,18.27
2017-11-07T08:27:39.112Z,17.27
2017-11-07T08:30:05.838Z,18.63
2017-11-07T08:32:32.567Z,17.60
2017-11-07T08:34:59.309Z,16.93
2017-11-07T08:37:26.069Z,17.70
2017-11-07T08:39:52.798Z,17.37
2017-11-07T08:42:19.507Z,17.60
2017-11-07T08:44:46.221Z,18.20
2017-11-07T08:47:12.973Z,17.10
2017-11-07T08:49:39.731Z,18.63
2017-11-07T08:52:06.449Z,19.03
2017-11-07T08:54:33.175Z,18.50
2017-11-07T08:56:59.905Z,19.20
2017-11-07T08:59:26.612Z,19.57
2017-11-07T09:01:53.323Z,19.53
2017-11-07T09:04:20.040Z,18.70
2017-11-07T09:06:46.777Z,18.50
2017-11-07T09:09:13.522Z,20.67
2017-11-07T09:11:40.277Z,19.77
2017-11-07T09:14:07.014Z,18.57
2017-11-07T09:16:33.757Z,22.40
2017-11-07T09:19:00.526Z,19.97
2017-11-07T09:21:27.239Z,19.70
2017-11-07T09:23:53.961Z,20.30
2017-11-07T09:26:20.715Z,20.50
2017-11-07T09:28:47.442Z,19.30
2017-11-07T09:31:14.156Z,19.50
2017-11-07T09:33:40.907Z,19.20
2017-11-07T09:36:07.622Z,19.10
2017-11-07T09:38:34.336Z,19.60
2017-11-07T09:41:01.058Z,18.23
2017-11-07T09:43:27.776Z,19.40
2017-11-07T09:45:54.506Z,18.83
2017-11-07T09:48:21.246Z,19.27
2017-11-07T09:50:47.964Z,19.40
2017-11-07T09:53:14.676Z,19.17
2017-11-07T09:55:41.418Z,18.97
2017-11-07T09:58:08.128Z,19.50
2017-11-07T10:00:34.853Z,19.27
2017-11-07T10:03:01.588Z,18.10
2017-11-07T10:05:28.370Z,19.23
2017-11-07T10:07:55.089Z,18.30
2017-11-07T10:10:21.822Z,18.63
2017-11-07T10:12:48.554Z,18.80
2017-11-07T10:15:15.269Z,17.83
2017-11-07T10:17:42.005Z,19.50
2017-11-07T10:20:08.737Z,19.50
2017-11-07T10:22:35.454Z,18.67
2017-11-07T10:25:02.222Z,20.13
2017-11-07T10:27:28.968Z,19.53
2017-11-07T10:29:55.711Z,18.33
2017-11-07T10:32:22.484Z,21.03
2017-11-07T10:34:49.203Z,20.37
2017-11-07T10:37:15.921Z,20.03
2017-11-07T10:39:42.661Z,19.13
2017-11-07T10:42:09.395Z,18.33
2017-11-07T10:44:36.169Z,18.53
2017-11-07T10:47:02.937Z,21.67
2017-11-07T10:49:29.642Z,19.77
2017-11-07T10:51:56.374Z,19.87
2017-11-07T10:54:23.128Z,17.83
2017-11-07T10:56:49.922Z,18.77
2017-11-07T10:59:16.635Z,19.70
2017-11-07T11:01:43.402Z,19.40
2017-11-07T11:04:10.175Z,18.20
2017-11-07T11:06:36.897Z,18.40
2017-11-07T11:09:03.649Z,19.63
2017-11-07T11:11:30.375Z,17.20
2017-11-07T11:13:57.113Z,17.97
2017-11-07T11:16:23.860Z,20.10
2017-11-07T11:18:50.596Z,19.80
2017-11-07T11:21:17.318Z,18.97
2017-11-07T11:23:44.053Z,17.80
2017-11-07T11:26:10.775Z,20.47
2017-11-07T11:28:37.522Z,19.20
2017-11-07T11:31:04.274Z,18.10
2017-11-07T11:33:30.993Z,21.70
2017-11-07T11:35:57.733Z,20.27
2017-11-07T11:38:24.565Z,20.40
2017-11-07T11:40:51.294Z,19.87
2017-11-07T11:43:18.019Z,19.63
2017-11-07T11:45:44.752Z,19.73
2017-11-07T11:48:11.471Z,18.23
2017-11-07T11:50:38.183Z,19.90
2017-11-07T11:53:04.917Z,18.60
2017-11-07T11:55:31.633Z,22.07
2017-11-07T11:57:58.442Z,19.93
2017-11-07T12:00:25.195Z,18.83
2017-11-07T12:02:51.917Z,19.50
2017-11-07T12:05:18.657Z,19.87
2017-11-07T12:07:45.396Z,19.10
2017-11-07T12:10:12.126Z,19.97
2017-11-07T12:12:38.859Z,19.97
2017-11-07T12:15:05.616Z,20.27
2017-11-07T12:17:32.344Z,25.23
2017-11-07T12:19:59.074Z,34.60
2017-11-07T12:22:25.845Z,23.40
2017-11-07T12:24:52.615Z,22.13
2017-11-07T12:27:19.352Z,21.50
2017-11-07T12:29:46.139Z,21.17
2017-11-07T12:32:12.901Z,20.93
2017-11-07T12:34:39.617Z,20.60
2017-11-07T12:37:06.387Z,23.47
2017-11-07T12:39:33.140Z,22.20
2017-11-07T12:41:59.871Z,21.30
2017-11-07T12:44:26.611Z,22.53
2017-11-07T12:46:53.345Z,22.60
2017-11-07T12:49:20.058Z,21.10
2017-11-07T12:51:59.857Z,20.43
2017-11-07T12:54:26.581Z,20.50
2017-11-07T12:56:53.294Z,24.63
2017-11-07T12:59:20.039Z,22.00
2017-11-07T13:01:46.799Z,19.80
2017-11-07T13:04:13.540Z,22.73
2017-11-07T13:06:40.289Z,19.93
2017-11-07T13:09:07.008Z,19.03
2017-11-07T13:11:33.747Z,19.97
2017-11-07T13:14:00.469Z,20.00
2017-11-07T13:16:27.191Z,21.77
2017-11-07T13:18:53.953Z,19.30
2017-11-07T13:21:20.740Z,22.30
2017-11-07T13:23:47.460Z,21.10
2017-11-07T13:26:14.307Z,21.30
2017-11-07T13:28:41.049Z,21.00
2017-11-07T13:31:07.802Z,22.43
2017-11-07T13:33:34.532Z,24.07
2017-11-07T13:36:01.276Z,21.90
2017-11-07T13:38:27.979Z,21.30
2017-11-07T13:40:54.702Z,21.60
2017-11-07T13:43:21.497Z,22.50
2017-11-07T13:45:48.208Z,22.20
2017-11-07T13:48:14.926Z,27.83
2017-11-07T13:50:41.642Z,28.57
2017-11-07T13:53:08.366Z,22.87
2017-11-07T13:55:35.094Z,22.40
2017-11-07T13:58:01.809Z,20.43
2017-11-07T14:00:28.546Z,32.30
2017-11-07T14:02:55.357Z,33.30
2017-11-07T14:05:22.095Z,38.27
2017-11-07T14:07:48.827Z,27.00
2017-11-07T14:10:15.568Z,33.50
2017-11-07T14:12:42.304Z,25.43
2017-11-07T14:15:09.019Z,23.03
2017-11-07T14:17:35.771Z,21.67
2017-11-07T14:20:02.506Z,23.27
2017-11-07T14:22:29.225Z,23.10
2017-11-07T14:24:55.968Z,26.20
2017-11-07T14:27:22.693Z,26.13
2017-11-07T14:29:49.405Z,22.80
2017-11-07T14:32:16.130Z,22.37
2017-11-07T14:34:42.844Z,21.73
2017-11-07T14:37:09.552Z,23.67
2017-11-07T14:39:36.268Z,33.80
2017-11-07T14:42:03.003Z,28.80
2017-11-07T14:44:29.716Z,30.47
2017-11-07T14:46:56.441Z,28.50
2017-11-07T14:49:23.173Z,50.80
2017-11-07T14:51:49.893Z,34.97
2017-11-07T14:54:16.647Z,37.87
2017-11-07T14:56:43.367Z,32.90
2017-11-07T14:59:10.087Z,26.50
2017-11-07T15:01:36.805Z,23.57
2017-11-07T15:04:03.559Z,25.47
2017-11-07T15:06:30.289Z,29.90
2017-11-07T15:08:57.005Z,26.07
2017-11-07T15:11:23.736Z,25.47
2017-11-07T15:13:50.489Z,24.77
2017-11-07T15:16:17.203Z,24.97
2017-11-07T15:18:43.986Z,25.33
2017-11-07T15:21:10.691Z,25.23
2017-11-07T15:23:37.419Z,25.37
2017-11-07T15:26:04.172Z,24.33
2017-11-07T15:28:30.892Z,23.90
2017-11-07T15:30:57.651Z,24.93
2017-11-07T15:33:24.387Z,23.30
2017-11-07T15:35:51.125Z,24.10
2017-11-07T15:38:17.857Z,22.20
2017-11-07T15:40:44.569Z,22.70
2017-11-07T15:43:11.301Z,22.10
2017-11-07T15:45:38.015Z,22.67
2017-11-07T15:48:04.750Z,22.77
2017-11-07T15:50:31.473Z,22.40
2017-11-07T15:52:58.196Z,24.60
2017-11-07T15:55:24.923Z,25.23
2017-11-07T15:57:51.653Z,24.10
2017-11-07T16:00:18.382Z,22.77
2017-11-07T16:02:45.126Z,21.07
2017-11-07T16:05:11.845Z,23.67
2017-11-07T16:07:38.560Z,24.47
2017-11-07T16:10:05.299Z,22.57
2017-11-07T16:12:32.035Z,20.67
2017-11-07T16:14:58.789Z,22.90
2017-11-07T16:17:25.569Z,22.30
2017-11-07T16:19:52.312Z,23.07
2017-11-07T16:22:19.054Z,22.77
2017-11-07T16:24:45.773Z,22.67
2017-11-07T16:27:12.495Z,23.00
2017-11-07T16:29:39.229Z,22.53
2017-11-07T16:32:05.973Z,23.90
2017-11-07T16:34:32.708Z,23.17
2017-11-07T16:36:59.430Z,25.27
2017-11-07T16:39:26.180Z,26.50
2017-11-07T16:41:52.929Z,25.90
2017-11-07T16:44:19.666Z,25.80
2017-11-07T16:46:46.399Z,25.90
2017-11-07T16:49:13.136Z,26.93
2017-11-07T16:51:39.875Z,26.37
2017-11-07T16:54:06.605Z,28.93
2017-11-07T16:56:33.365Z,28.50
2017-11-07T16:59:00.217Z,30.47
2017-11-07T17:01:27.022Z,30.00
2017-11-07T17:03:53.748Z,26.73
2017-11-07T17:06:20.500Z,26.07
2017-11-07T17:08:47.267Z,23.67
2017-11-07T17:11:14.036Z,25.57
2017-11-07T17:13:40.764Z,22.17
2017-11-07T17:16:07.499Z,26.00
2017-11-07T17:18:34.232Z,26.40
2017-11-07T17:21:00.958Z,28.60
2017-11-07T17:23:27.718Z,27.20
2017-11-07T17:25:54.460Z,29.20
2017-11-07T17:28:21.202Z,32.10
2017-11-07T17:30:47.938Z,28.43
2017-11-07T17:33:14.643Z,30.60
2017-11-07T17:35:41.380Z,29.40
2017-11-07T17:38:08.132Z,26.83
2017-11-07T17:40:34.890Z,28.53
2017-11-07T17:43:01.623Z,26.33
2017-11-07T17:45:28.401Z,25.23
2017-11-07T17:47:55.189Z,25.80
2017-11-07T17:50:22.004Z,24.93
2017-11-07T17:52:48.771Z,24.90
2017-11-07T17:55:15.517Z,26.40
2017-11-07T17:57:42.280Z,27.10
2017-11-07T18:00:09.105Z,23.47
2017-11-07T18:02:35.863Z,26.07
2017-11-07T18:05:02.610Z,23.77
2017-11-07T18:07:29.459Z,25.47
2017-11-07T18:09:57.084Z,27.27
2017-11-07T18:12:23.813Z,26.30
2017-11-07T18:14:50.556Z,25.93
2017-11-07T18:17:17.322Z,24.20
2017-11-07T18:19:44.053Z,25.57
2017-11-07T18:22:10.796Z,25.60
2017-11-07T18:24:37.521Z,26.47
2017-11-07T18:27:04.249Z,27.30
2017-11-07T18:29:30.975Z,25.20
2017-11-07T18:31:57.714Z,28.47
2017-11-07T18:34:24.454Z,27.23
2017-11-07T18:36:51.180Z,26.47
2017-11-07T18:39:17.894Z,29.27
2017-11-07T18:41:44.634Z,27.30
2017-11-07T18:44:11.379Z,26.50
2017-11-07T18:46:38.122Z,24.13
2017-11-07T18:49:04.837Z,25.70
2017-11-07T18:51:31.565Z,22.77
2017-11-07T18:53:58.376Z,24.77
2017-11-07T18:56:25.103Z,26.30
2017-11-07T18:58:51.857Z,26.13
2017-11-07T19:01:18.706Z,25.90
2017-11-07T19:03:45.440Z,25.70
2017-11-07T19:06:12.162Z,23.90
2017-11-07T19:08:38.882Z,25.83
2017-11-07T19:11:05.604Z,27.20
2017-11-07T19:13:32.496Z,26.20
2017-11-07T19:15:59.231Z,25.50
2017-11-07T19:18:25.993Z,25.33
2017-11-07T19:20:52.717Z,26.70
2017-11-07T19:23:19.443Z,24.37
2017-11-07T19:25:46.192Z,26.63
2017-11-07T19:28:12.931Z,26.90
2017-11-07T19:30:39.789Z,27.23
2017-11-07T19:33:06.533Z,26.57
2017-11-07T19:35:33.278Z,25.40
2017-11-07T19:38:00.029Z,27.50
2017-11-07T19:40:26.812Z,26.40
2017-11-07T19:42:53.611Z,28.50
2017-11-07T19:45:20.336Z,28.20
2017-11-07T19:47:47.070Z,27.93
2017-11-07T19:50:13.815Z,28.43
2017-11-07T19:52:40.565Z,30.60
2017-11-07T19:55:07.306Z,27.83
2017-11-07T19:57:34.054Z,27.97
2017-11-07T20:00:00.801Z,27.20
2017-11-07T20:02:27.530Z,28.90
2017-11-07T20:04:54.279Z,30.27
2017-11-07T20:07:21.018Z,28.53
2017-11-07T20:09:47.762Z,29.87
2017-11-07T20:12:14.489Z,31.37
2017-11-07T20:14:41.243Z,30.40
2017-11-07T20:17:08.005Z,31.10
2017-11-07T20:19:34.757Z,30.77
2017-11-07T20:22:01.536Z,30.40
2017-11-07T20:24:28.276Z,33.03
2017-11-07T20:26:55.035Z,31.40
2017-11-07T20:29:21.755Z,31.07
2017-11-07T20:31:48.509Z,33.50
2017-11-07T20:34:15.309Z,32.57
2017-11-07T20:36:42.043Z,31.70
2017-11-07T20:39:08.776Z,30.70
2017-11-07T20:41:35.522Z,35.10
2017-11-07T20:44:02.266Z,34.57
2017-11-07T20:46:28.998Z,34.07
2017-11-07T20:48:55.751Z,31.93
2017-11-07T20:51:22.512Z,34.10
2017-11-07T20:53:49.271Z,33.83
2017-11-07T20:56:16.028Z,31.70
2017-11-07T20:58:42.777Z,33.77
2017-11-07T21:01:09.526Z,33.57
2017-11-07T21:03:36.286Z,31.83
2017-11-07T21:06:06.015Z,34.20
2017-11-07T21:08:33.072Z,35.03
2017-11-07T21:10:59.836Z,33.90
2017-11-07T21:13:26.598Z,34.80
2017-11-07T21:15:54.210Z,34.07
2017-11-07T21:18:20.932Z,31.53
2017-11-07T21:20:50.298Z,33.40
2017-11-07T21:23:18.695Z,32.97
2017-11-07T21:25:45.425Z,34.37
2017-11-07T21:28:12.165Z,33.43
2017-11-07T21:30:38.893Z,34.23
2017-11-07T21:33:05.650Z,32.30
2017-11-07T21:35:32.376Z,34.17
2017-11-07T21:37:59.117Z,33.67
2017-11-07T21:40:25.863Z,31.60
2017-11-07T21:42:52.641Z,33.00
2017-11-07T21:45:19.367Z,33.27
2017-11-07T21:47:46.115Z,33.00
2017-11-07T21:50:12.831Z,33.90
2017-11-07T21:52:39.974Z,35.67
2017-11-07T21:55:06.723Z,34.33
2017-11-07T21:57:33.452Z,31.60
2017-11-07T22:00:01.532Z,33.63
2017-11-07T22:02:28.799Z,34.07
2017-11-07T22:04:55.517Z,31.80
2017-11-07T22:07:22.284Z,33.77
2017-11-07T22:09:51.935Z,33.80
2017-11-07T22:12:18.662Z,32.77
2017-11-07T22:14:45.382Z,34.80
2017-11-07T22:17:12.118Z,34.10
2017-11-07T22:19:38.862Z,34.33
2017-11-07T22:22:05.607Z,31.73
2017-11-07T22:24:32.330Z,33.70
2017-11-07T22:26:59.051Z,34.10
2017-11-07T22:29:25.772Z,34.20
2017-11-07T22:31:52.499Z,34.60
2017-11-07T22:34:19.458Z,32.20
2017-11-07T22:36:46.198Z,33.60
2017-11-07T22:39:12.995Z,34.00
2017-11-07T22:41:39.716Z,35.20
2017-11-07T22:44:07.168Z,35.67
2017-11-07T22:46:34.105Z,34.70
2017-11-07T22:49:00.832Z,35.50
2017-11-07T22:51:27.560Z,35.13
2017-11-07T22:53:54.297Z,36.63
2017-11-07T22:56:21.016Z,36.17
2017-11-07T22:58:47.745Z,36.03
2017-11-07T23:01:14.469Z,35.10
2017-11-07T23:03:41.205Z,35.13
2017-11-07T23:06:07.927Z,35.80
2017-11-07T23:08:34.678Z,35.83
2017-11-07T23:11:01.401Z,33.80
2017-11-07T23:13:28.115Z,33.10
2017-11-07T23:15:54.854Z,35.57
2017-11-07T23:18:21.624Z,34.37
2017-11-07T23:20:48.343Z,32.13
2017-11-07T23:23:15.081Z,34.17
2017-11-07T23:25:41.810Z,34.43
2017-11-07T23:28:08.517Z,35.07
2017-11-07T23:30:35.243Z,36.70
2017-11-07T23:33:01.947Z,32.90
2017-11-07T23:35:28.659Z,35.23
2017-11-07T23:37:55.449Z,34.97
2017-11-07T23:40:22.162Z,31.87
2017-11-07T23:42:48.891Z,29.83
2017-11-07T23:45:15.605Z,28.40
2017-11-07T23:47:42.331Z,29.27
2017-11-07T23:50:09.043Z,30.10
2017-11-07T23:52:35.761Z,29.87
2017-11-07T23:55:02.505Z,31.00
2017-11-07T23:57:29.217Z,31.50
2017-11-07T23:59:55.927Z,31.53
